Kezdőlap
METAR-TAF:

METAR-TAF

Repülőterek :

Creston, Iowa, Amerikai Egyesült Államok

földrajzi szélesség: 41-01N, földrajzi hosszúság: 094-22W, magasság: 394 m

Jelenlegi meteorológiai megfigyelések

A jelentés 20 perccel ezelõtt készült, 17:15 UTC
Déli szél 8 kt
Hőmérséklet 29°C
Páratartalom 74%
Légköri nyomás 1017 hPa
Látótávolság: 16.1 km
Szórványos felhőzet 2800 lábon
Szórványos felhőzet 3200 lábon

METAR: KCSQ 131715Z AUTO 18008KT 10SM SCT028 SCT032 29/24 A3004 RMK AO2

Idő: 12:35 (17:35 UTC)


TAF: hiányzik

Meteorológiai megfigyelések és előrejelzések több, mint 4000 repülőtéren (METAR és TAF jelentéseket).

A térképen piros és sárga pontok jelzik az elérhető meteorológiai állomásokat.

Mozgassa az egeret a pont fölött, hogy megjelenjen az állomás neve.

Azután kattintson az időjárási megfigyelések és előrejelzések megtekintéséhez.

A térkép megváltoztatása: kattintson a fekete keresztel jelölt zöld gombra ráközelítéshez, a vonallal jelölt zöld gombra távolításhoz, vagy a zöld nyilakra a szomszédos térképek eléréséhez.


METAR-TAF: